Time;durP1;ratioP1;P1;durP2;ratioP2;P2;SDS_P1;SDS_P2;PMS_P1;PMS_P2;Temp;Humidity;BMP_temperature;BMP_pressure;BME280_temperature;BME280_humidity;BME280_pressure;Samples;Min_cycle;Max_cycle;Signal;HPM_P1;HPM_P2
2023/03/31 03:03:20;;;;;;;3.47;1.63;;;12.30;80.70;;;;;;4991844;28;20464;-70
2023/03/31 03:05:52;;;;;;;3.87;1.87;;;12.40;80.10;;;;;;4993622;28;20438;-71
2023/03/31 03:08:27;;;;;;;3.63;1.50;;;12.60;79.60;;;;;;4993646;28;20767;-71
2023/03/31 03:11:05;;;;;;;2.97;1.53;;;12.80;79.20;;;;;;4989138;28;20497;-71
2023/03/31 03:13:41;;;;;;;3.40;1.53;;;12.90;78.90;;;;;;4994585;28;20437;-72
2023/03/31 03:16:18;;;;;;;3.30;1.50;;;13.00;78.70;;;;;;4984008;28;20962;-71
2023/03/31 03:18:55;;;;;;;2.73;1.20;;;13.00;78.10;;;;;;4975311;28;20446;-72
2023/03/31 03:21:22;;;;;;;3.47;2.00;;;13.00;77.90;;;;;;4974957;28;20477;-71
2023/03/31 03:23:50;;;;;;;3.60;2.00;;;13.00;78.00;;;;;;4974725;28;20450;-72
2023/03/31 03:26:20;;;;;;;3.50;1.33;;;13.00;77.90;;;;;;4974564;28;20455;-71
2023/03/31 03:28:47;;;;;;;3.67;1.67;;;12.70;78.40;;;;;;4974462;28;20450;-72
2023/03/31 03:31:15;;;;;;;2.60;1.37;;;12.70;78.50;;;;;;4974520;28;20474;-71
2023/03/31 03:33:42;;;;;;;4.33;1.50;;;12.50;78.90;;;;;;4975503;28;20533;-71
2023/03/31 03:36:10;;;;;;;3.40;1.70;;;12.40;79.30;;;;;;4977869;28;20446;-72
2023/03/31 03:38:36;;;;;;;2.60;1.30;;;12.50;79.30;;;;;;4978315;28;20509;-72
2023/03/31 03:41:03;;;;;;;2.50;1.50;;;12.40;79.40;;;;;;4977667;28;20470;-72
2023/03/31 03:43:30;;;;;;;3.20;1.73;;;12.40;79.30;;;;;;4977635;28;20454;-72
2023/03/31 03:45:57;;;;;;;2.40;1.30;;;12.40;79.50;;;;;;4977133;28;21014;-72
2023/03/31 03:48:23;;;;;;;3.07;1.57;;;12.40;79.70;;;;;;4977392;28;20870;-71
2023/03/31 03:50:52;;;;;;;3.10;1.43;;;12.40;79.90;;;;;;4977306;28;20466;-71
2023/03/31 03:53:20;;;;;;;3.17;1.47;;;12.50;79.50;;;;;;4977352;28;20490;-71
2023/03/31 03:55:47;;;;;;;4.80;2.47;;;12.30;80.00;;;;;;4976878;28;20505;-71
2023/03/31 03:58:14;;;;;;;3.60;1.87;;;12.10;80.50;;;;;;4976759;28;21084;-71
2023/03/31 04:00:41;;;;;;;3.47;2.03;;;11.90;81.20;;;;;;4976637;28;20470;-71
2023/03/31 04:03:08;;;;;;;4.60;2.17;;;11.90;81.40;;;;;;4977031;28;20845;-71
2023/03/31 04:05:34;;;;;;;2.90;1.60;;;11.70;81.70;;;;;;4977121;28;20447;-71
2023/03/31 04:08:01;;;;;;;4.03;1.70;;;11.70;81.90;;;;;;4977053;28;20442;-71
2023/03/31 04:10:29;;;;;;;3.27;1.73;;;11.40;82.70;;;;;;4976871;28;20450;-72
2023/03/31 04:12:56;;;;;;;4.20;1.90;;;11.50;83.00;;;;;;4976895;28;20478;-71
2023/03/31 04:15:23;;;;;;;3.47;1.80;;;11.60;82.40;;;;;;4976947;28;20454;-72
2023/03/31 04:17:53;;;;;;;3.43;1.70;;;11.60;82.00;;;;;;4976765;28;20478;-72
2023/03/31 04:20:21;;;;;;;4.50;2.30;;;11.70;82.00;;;;;;4976855;28;20525;-71
2023/03/31 04:22:49;;;;;;;3.63;2.00;;;11.80;81.30;;;;;;4976800;28;20450;-72
2023/03/31 04:25:16;;;;;;;2.90;1.60;;;11.80;81.40;;;;;;4976801;28;20454;-71
2023/03/31 04:27:49;;;;;;;3.10;2.40;;;11.80;81.40;;;;;;4976825;28;20497;-71
2023/03/31 04:30:21;;;;;;;2.83;1.90;;;11.60;82.00;;;;;;4976878;28;20443;-72
2023/03/31 04:32:49;;;;;;;3.60;1.83;;;11.40;82.60;;;;;;4976815;28;20443;-72
2023/03/31 04:35:16;;;;;;;3.33;2.10;;;11.40;83.20;;;;;;4976873;28;20568;-72
2023/03/31 04:37:43;;;;;;;5.17;2.23;;;11.60;82.90;;;;;;4976489;28;20489;-72
2023/03/31 04:40:10;;;;;;;3.60;1.97;;;11.70;81.90;;;;;;4976443;28;20450;-72
2023/03/31 04:42:37;;;;;;;3.80;1.90;;;11.70;81.80;;;;;;4976330;28;20542;-71
2023/03/31 04:45:06;;;;;;;3.47;1.80;;;11.80;81.70;;;;;;4975678;28;20446;-71
2023/03/31 04:47:32;;;;;;;3.33;1.80;;;11.70;81.90;;;;;;4976264;28;20454;-71
2023/03/31 04:49:59;;;;;;;3.10;2.00;;;11.90;81.80;;;;;;4976287;28;20450;-71
2023/03/31 04:52:26;;;;;;;2.97;1.93;;;12.00;81.40;;;;;;4976170;28;20482;-72
2023/03/31 04:54:53;;;;;;;3.00;1.53;;;12.20;80.70;;;;;;4976190;28;20454;-71
2023/03/31 04:57:20;;;;;;;3.43;2.13;;;12.00;80.80;;;;;;4976394;28;20482;-71
2023/03/31 04:59:46;;;;;;;3.17;2.03;;;12.00;81.40;;;;;;4977191;28;20458;-71
2023/03/31 05:02:22;;;;;;;3.27;1.73;;;12.10;80.80;;;;;;4976970;28;20544;-71
2023/03/31 05:04:48;;;;;;;4.83;2.37;;;12.10;80.70;;;;;;4976830;28;20454;-71
2023/03/31 05:07:15;;;;;;;3.03;1.80;;;11.90;81.00;;;;;;4975790;28;20943;-72
2023/03/31 05:09:42;;;;;;;3.47;1.90;;;11.80;82.00;;;;;;4975894;28;20458;-72
2023/03/31 05:12:08;;;;;;;4.47;2.63;;;11.90;82.20;;;;;;4975874;28;20548;-71
2023/03/31 05:14:35;;;;;;;3.77;2.20;;;11.80;81.80;;;;;;4975845;28;20446;-72
2023/03/31 05:17:02;;;;;;;4.20;2.03;;;11.70;82.60;;;;;;4975656;28;20517;-72
2023/03/31 05:19:30;;;;;;;4.33;2.70;;;11.60;83.10;;;;;;4975718;28;20504;-72
2023/03/31 05:21:57;;;;;;;3.73;2.13;;;11.60;83.20;;;;;;4975254;28;21006;-72
2023/03/31 05:24:23;;;;;;;3.70;2.70;;;11.70;83.60;;;;;;4975562;28;20451;-71
2023/03/31 05:26:51;;;;;;;4.83;2.20;;;11.50;84.10;;;;;;4975502;28;20883;-72
2023/03/31 05:29:18;;;;;;;3.10;2.50;;;11.60;84.60;;;;;;4975167;28;20861;-72
2023/03/31 05:31:46;;;;;;;5.40;2.57;;;11.80;84.30;;;;;;4975690;28;20474;-72
2023/03/31 05:34:12;;;;;;;3.53;2.00;;;11.80;84.10;;;;;;4975369;28;20461;-72
2023/03/31 05:36:42;;;;;;;3.03;2.17;;;11.90;84.10;;;;;;4975347;28;20877;-72
2023/03/31 05:39:09;;;;;;;4.10;2.03;;;12.00;84.00;;;;;;4975290;28;20489;-72
2023/03/31 05:41:36;;;;;;;3.60;1.93;;;12.10;83.70;;;;;;4974945;28;20470;-72
2023/03/31 05:44:02;;;;;;;5.17;2.00;;;12.10;82.90;;;;;;4975462;28;20461;-72
2023/03/31 05:46:29;;;;;;;4.90;2.70;;;11.90;83.60;;;;;;4975454;28;20501;-72
2023/03/31 05:48:56;;;;;;;4.67;2.67;;;11.80;83.70;;;;;;4975183;28;20446;-72
2023/03/31 05:51:23;;;;;;;3.70;2.03;;;11.80;84.80;;;;;;4975071;28;20525;-72
2023/03/31 05:53:51;;;;;;;3.60;2.20;;;11.80;84.50;;;;;;4974973;28;20458;-72
2023/03/31 05:56:17;;;;;;;2.87;2.23;;;11.80;84.70;;;;;;4974720;28;20446;-72
2023/03/31 05:58:44;;;;;;;3.87;2.10;;;11.80;84.70;;;;;;4974459;28;20538;-72
2023/03/31 06:01:12;;;;;;;3.80;2.07;;;11.90;84.90;;;;;;4974909;28;20924;-71
2023/03/31 06:03:40;;;;;;;4.37;2.70;;;12.00;84.70;;;;;;4975091;28;20446;-72
2023/03/31 06:06:08;;;;;;;3.77;2.30;;;11.90;84.70;;;;;;4974793;28;20538;-72
2023/03/31 06:08:36;;;;;;;4.50;3.30;;;11.90;85.00;;;;;;4974751;28;20442;-72
2023/03/31 06:11:06;;;;;;;3.33;2.30;;;11.80;85.30;;;;;;4974662;28;20506;-73
2023/03/31 06:13:33;;;;;;;3.70;2.10;;;11.60;85.80;;;;;;4974728;28;20450;-72
2023/03/31 06:16:00;;;;;;;3.73;2.80;;;11.80;85.60;;;;;;4974320;28;20944;-72
2023/03/31 06:18:28;;;;;;;3.20;2.10;;;11.90;85.10;;;;;;4974593;28;20921;-73
2023/03/31 06:20:55;;;;;;;3.60;2.00;;;11.90;85.10;;;;;;4974468;28;20528;-72
2023/03/31 06:23:22;;;;;;;4.53;2.57;;;12.00;84.90;;;;;;4974573;28;20450;-73
2023/03/31 06:25:49;;;;;;;3.80;2.83;;;12.00;85.50;;;;;;4974544;28;20537;-73
2023/03/31 06:28:17;;;;;;;4.40;2.80;;;11.90;85.30;;;;;;4974539;28;20516;-72
2023/03/31 06:30:44;;;;;;;4.00;2.43;;;11.80;85.30;;;;;;4974477;28;20474;-73
2023/03/31 06:33:12;;;;;;;4.30;2.20;;;12.00;85.40;;;;;;4974504;28;20474;-73
2023/03/31 06:35:39;;;;;;;4.70;2.27;;;12.10;84.90;;;;;;4974526;28;20505;-73
2023/03/31 06:38:06;;;;;;;3.10;2.40;;;12.20;85.10;;;;;;4974192;28;21021;-73
2023/03/31 06:40:33;;;;;;;4.60;2.40;;;12.30;84.70;;;;;;4974435;28;20545;-73
2023/03/31 06:43:00;;;;;;;7.80;3.10;;;12.30;84.50;;;;;;4974550;28;20561;-73
2023/03/31 06:45:28;;;;;;;5.10;3.17;;;12.40;84.40;;;;;;4974538;28;20501;-71
2023/03/31 06:47:54;;;;;;;4.23;2.70;;;12.30;84.60;;;;;;4974835;28;20492;-71
2023/03/31 06:50:21;;;;;;;3.80;2.67;;;12.40;84.70;;;;;;4974404;28;20450;-72
2023/03/31 06:52:51;;;;;;;2.90;2.30;;;12.30;84.60;;;;;;4974325;28;20446;-72
2023/03/31 06:55:18;;;;;;;4.60;2.63;;;12.30;84.80;;;;;;4974083;28;20997;-72
2023/03/31 06:57:45;;;;;;;4.37;2.20;;;12.00;85.30;;;;;;4974315;28;20478;-72
2023/03/31 07:00:13;;;;;;;4.10;2.90;;;11.90;87.40;;;;;;4974279;28;20463;-72
2023/03/31 07:02:41;;;;;;;4.30;2.83;;;11.80;88.20;;;;;;4973923;28;20482;-71
2023/03/31 07:05:08;;;;;;;4.67;2.40;;;11.80;87.60;;;;;;4974262;28;20478;-72
2023/03/31 07:07:34;;;;;;;3.40;2.40;;;11.60;87.40;;;;;;4974236;28;20446;-72
2023/03/31 07:10:01;;;;;;;3.83;2.33;;;11.10;88.80;;;;;;4977514;28;20504;-71
2023/03/31 07:12:28;;;;;;;4.30;2.10;;;10.90;89.60;;;;;;4977955;28;20474;-71
2023/03/31 07:14:55;;;;;;;2.70;1.90;;;10.70;90.30;;;;;;4977875;28;20505;-72
2023/03/31 07:17:24;;;;;;;3.93;1.93;;;10.70;91.00;;;;;;4977561;28;20955;-72
2023/03/31 07:19:52;;;;;;;2.87;1.50;;;10.70;90.70;;;;;;4978449;28;20863;-72
2023/03/31 07:22:18;;;;;;;2.63;1.73;;;10.60;90.10;;;;;;4978153;28;20470;-72
2023/03/31 07:24:45;;;;;;;3.00;1.40;;;10.60;90.10;;;;;;4978210;28;20454;-72
2023/03/31 07:27:12;;;;;;;4.80;1.80;;;10.40;89.30;;;;;;4978244;28;20513;-73
2023/03/31 07:29:38;;;;;;;2.90;1.40;;;10.60;89.80;;;;;;4977980;28;20453;-73
2023/03/31 07:32:05;;;;;;;2.67;1.40;;;10.50;89.30;;;;;;4978058;28;20558;-72
2023/03/31 07:34:32;;;;;;;2.53;1.33;;;10.60;89.40;;;;;;4977686;28;21015;-72
2023/03/31 07:37:00;;;;;;;2.60;1.33;;;10.70;89.30;;;;;;4977404;28;20947;-72
2023/03/31 07:39:26;;;;;;;3.00;1.80;;;10.80;88.50;;;;;;4977718;28;20489;-73
2023/03/31 07:41:53;;;;;;;2.50;1.10;;;11.30;89.80;;;;;;4977660;28;20466;-73
2023/03/31 07:44:22;;;;;;;4.10;1.20;;;11.80;87.20;;;;;;4977707;28;20456;-72
2023/03/31 07:46:48;;;;;;;3.53;1.30;;;12.10;85.60;;;;;;4977646;28;20485;-72
2023/03/31 07:49:15;;;;;;;2.30;0.93;;;12.60;83.50;;;;;;4977652;28;20450;-72
2023/03/31 07:51:42;;;;;;;2.57;1.07;;;12.50;81.40;;;;;;4977384;28;20565;-72
2023/03/31 07:54:10;;;;;;;2.50;1.00;;;12.60;82.50;;;;;;4977626;28;20466;-73
2023/03/31 07:56:37;;;;;;;1.90;0.80;;;12.80;79.60;;;;;;4977381;28;20446;-72
2023/03/31 07:59:04;;;;;;;1.90;0.80;;;12.60;80.20;;;;;;4977187;28;20486;-72
2023/03/31 08:01:30;;;;;;;2.00;0.80;;;12.40;80.80;;;;;;4976794;28;20485;-72
2023/03/31 08:03:57;;;;;;;2.00;0.80;;;12.40;80.60;;;;;;4977153;28;20512;-72
2023/03/31 08:06:26;;;;;;;2.70;1.00;;;12.40;81.00;;;;;;4977034;28;20450;-72
2023/03/31 08:08:53;;;;;;;2.37;1.00;;;12.30;82.40;;;;;;4977454;28;20474;-73
2023/03/31 08:11:21;;;;;;;2.73;0.80;;;12.60;83.30;;;;;;4977003;28;20476;-71
2023/03/31 08:13:48;;;;;;;2.10;0.80;;;12.80;82.80;;;;;;4976676;28;20457;-72
2023/03/31 08:16:15;;;;;;;2.10;0.87;;;13.00;81.10;;;;;;4977018;28;20805;-73
2023/03/31 08:18:42;;;;;;;2.10;0.77;;;13.00;79.90;;;;;;4976685;28;20537;-72
2023/03/31 08:21:09;;;;;;;2.30;1.00;;;13.20;80.70;;;;;;4975747;28;20475;-72
2023/03/31 08:23:36;;;;;;;1.90;0.80;;;13.70;80.50;;;;;;4976905;28;20497;-72
2023/03/31 08:26:09;;;;;;;2.27;0.90;;;14.10;79.40;;;;;;4976723;28;20485;-72
2023/03/31 08:28:37;;;;;;;2.10;0.80;;;14.30;77.90;;;;;;4976641;28;20443;-72
2023/03/31 08:31:04;;;;;;;2.20;0.87;;;14.50;77.70;;;;;;4976483;28;20474;-73
2023/03/31 08:33:31;;;;;;;2.30;1.20;;;14.50;77.20;;;;;;4976607;28;20450;-73
2023/03/31 08:36:02;;;;;;;1.87;0.80;;;14.60;76.70;;;;;;4976536;28;20458;-73
2023/03/31 08:38:29;;;;;;;2.73;0.90;;;14.80;77.20;;;;;;4976403;28;20470;-73
2023/03/31 08:40:59;;;;;;;2.33;0.90;;;14.60;76.50;;;;;;4976460;28;20471;-72
2023/03/31 08:43:31;;;;;;;2.13;0.90;;;14.50;77.60;;;;;;4976721;28;20529;-72
2023/03/31 08:46:01;;;;;;;2.70;0.90;;;14.60;76.80;;;;;;4976475;28;20586;-72
2023/03/31 08:48:32;;;;;;;2.57;1.30;;;14.40;78.00;;;;;;4976333;28;20446;-72
2023/03/31 08:51:05;;;;;;;2.30;0.80;;;14.10;77.00;;;;;;4976276;28;20477;-73
2023/03/31 08:53:37;;;;;;;2.87;1.00;;;14.20;77.40;;;;;;4975989;28;20848;-72
2023/03/31 08:56:06;;;;;;;2.10;0.90;;;14.10;77.50;;;;;;4977038;28;20434;-73
2023/03/31 08:58:39;;;;;;;2.83;0.97;;;14.30;79.00;;;;;;4976041;28;20493;-73
2023/03/31 09:01:15;;;;;;;2.07;0.87;;;14.60;80.10;;;;;;4975789;28;20498;-72
2023/03/31 09:03:50;;;;;;;2.50;1.20;;;15.00;76.30;;;;;;4975974;28;20481;-73
2023/03/31 09:06:22;;;;;;;2.10;1.00;;;15.20;74.20;;;;;;4975940;28;20434;-72
2023/03/31 09:08:48;;;;;;;2.50;1.00;;;15.30;72.80;;;;;;4975625;28;20970;-72
2023/03/31 09:11:26;;;;;;;5.20;1.43;;;15.10;74.00;;;;;;4976003;28;20466;-72
2023/03/31 09:14:04;;;;;;;2.50;1.07;;;15.10;74.20;;;;;;4975926;28;20489;-72
2023/03/31 09:16:37;;;;;;;2.30;0.90;;;15.00;75.20;;;;;;4976273;28;20792;-72
2023/03/31 09:19:09;;;;;;;2.50;1.07;;;14.80;73.10;;;;;;4975812;28;20541;-72
2023/03/31 09:21:40;;;;;;;2.43;1.03;;;14.90;72.70;;;;;;4975734;28;20516;-73
2023/03/31 09:24:12;;;;;;;3.20;1.23;;;14.90;73.20;;;;;;4975689;28;20469;-72
2023/03/31 09:26:43;;;;;;;2.00;0.90;;;14.80;72.50;;;;;;4975621;28;20886;-73
2023/03/31 09:29:17;;;;;;;3.50;1.20;;;14.50;72.30;;;;;;4975865;28;20442;-72
2023/03/31 09:31:46;;;;;;;2.30;0.93;;;14.40;72.10;;;;;;4975439;28;20474;-72
2023/03/31 09:34:15;;;;;;;2.27;1.00;;;14.20;73.90;;;;;;4975597;28;20450;-72
2023/03/31 09:36:43;;;;;;;2.50;1.00;;;14.40;71.70;;;;;;4975764;28;20446;-72
2023/03/31 09:39:13;;;;;;;3.47;1.00;;;14.20;72.60;;;;;;4975947;28;20482;-72
2023/03/31 09:41:44;;;;;;;2.40;0.97;;;14.30;72.70;;;;;;4977055;28;20553;-72
2023/03/31 09:44:22;;;;;;;2.23;1.00;;;14.20;72.80;;;;;;4977611;28;20430;-72
2023/03/31 09:46:50;;;;;;;2.70;1.00;;;14.20;72.30;;;;;;4977881;28;20434;-71
2023/03/31 09:49:20;;;;;;;2.10;0.97;;;14.10;71.40;;;;;;4977317;28;20446;-72
2023/03/31 09:51:51;;;;;;;2.57;0.93;;;14.40;71.60;;;;;;4977705;28;20525;-72
2023/03/31 09:54:24;;;;;;;2.80;1.10;;;14.40;70.40;;;;;;4976892;28;20438;-72
2023/03/31 09:56:52;;;;;;;2.00;0.80;;;14.50;69.20;;;;;;4975595;28;20438;-72
2023/03/31 09:59:21;;;;;;;3.77;1.13;;;14.40;70.50;;;;;;4975091;28;20569;-72
2023/03/31 10:01:52;;;;;;;3.20;1.13;;;14.50;69.20;;;;;;4974786;28;20832;-72
2023/03/31 10:04:22;;;;;;;2.67;1.00;;;14.60;68.80;;;;;;4974942;28;20439;-72
2023/03/31 10:06:51;;;;;;;4.30;1.30;;;14.60;68.20;;;;;;4975122;28;20462;-72
2023/03/31 10:09:20;;;;;;;4.00;1.40;;;14.70;68.80;;;;;;4974639;28;20450;-72
2023/03/31 10:11:56;;;;;;;3.13;1.50;;;15.00;68.40;;;;;;4974977;28;20565;-72
2023/03/31 10:14:27;;;;;;;2.80;1.30;;;14.90;68.70;;;;;;4974855;28;20449;-72
2023/03/31 10:16:56;;;;;;;5.10;1.40;;;15.00;67.60;;;;;;4975062;28;20526;-72
2023/03/31 10:19:25;;;;;;;2.97;1.20;;;15.00;65.90;;;;;;4974807;28;20490;-73
2023/03/31 10:21:57;;;;;;;3.13;1.67;;;15.00;65.20;;;;;;4974709;28;20466;-72
2023/03/31 10:24:26;;;;;;;5.10;1.40;;;14.80;65.60;;;;;;4974786;28;20548;-75
2023/03/31 10:26:55;;;;;;;5.70;1.40;;;15.10;66.20;;;;;;4974699;28;20454;-75
2023/03/31 10:29:25;;;;;;;3.37;1.20;;;15.40;65.30;;;;;;4974656;28;20537;-74
2023/03/31 10:31:52;;;;;;;3.87;1.87;;;15.60;62.30;;;;;;4974776;28;20481;-74
2023/03/31 10:34:22;;;;;;;2.90;1.13;;;15.60;61.70;;;;;;4974681;28;20525;-74
2023/03/31 10:36:51;;;;;;;4.23;2.10;;;15.50;61.60;;;;;;4974303;28;20454;-73
2023/03/31 10:39:19;;;;;;;3.53;1.40;;;15.50;62.60;;;;;;4974792;28;20664;-74
2023/03/31 10:41:51;;;;;;;2.67;1.20;;;15.50;62.30;;;;;;4974817;28;20474;-73
2023/03/31 10:44:35;;;;;;;2.83;1.50;;;15.60;63.70;;;;;;4979274;28;20453;-72
2023/03/31 10:47:16;;;;;;;3.50;1.20;;;15.50;61.60;;;;;;4981298;28;20437;-74
2023/03/31 10:49:45;;;;;;;4.30;1.27;;;15.60;61.50;;;;;;4981337;28;20429;-74
2023/03/31 10:52:18;;;;;;;3.97;1.43;;;15.50;61.60;;;;;;4980959;28;20561;-74
2023/03/31 10:54:49;;;;;;;3.57;1.40;;;15.60;59.80;;;;;;4980938;28;20438;-75
2023/03/31 10:57:18;;;;;;;2.67;1.10;;;15.90;59.10;;;;;;4980782;28;20505;-74
2023/03/31 11:00:04;;;;;;;2.53;1.40;;;16.10;59.90;;;;;;4981381;28;20508;-73
2023/03/31 11:03:02;;;;;;;2.80;1.20;;;16.10;59.40;;;;;;4980785;28;20481;-72
2023/03/31 11:05:36;;;;;;;3.33;1.30;;;16.10;59.00;;;;;;4970947;28;20450;-73
2023/03/31 11:08:17;;;;;;;3.43;1.60;;;15.90;58.80;;;;;;4981062;28;20498;-73
2023/03/31 11:11:04;;;;;;;2.90;1.17;;;15.50;59.90;;;;;;4980811;28;20485;-74
2023/03/31 11:13:40;;;;;;;2.80;1.33;;;15.30;60.80;;;;;;4980661;28;20442;-74
2023/03/31 11:16:18;;;;;;;2.80;1.30;;;15.00;62.30;;;;;;4980748;28;20434;-74
2023/03/31 11:19:00;;;;;;;4.30;2.27;;;15.10;62.80;;;;;;4980884;28;20516;-74
2023/03/31 11:21:37;;;;;;;2.00;0.80;;;15.00;65.50;;;;;;4980832;28;20470;-74
2023/03/31 11:24:17;;;;;;;2.70;0.80;;;14.40;71.30;;;;;;4980581;28;20438;-74
2023/03/31 11:26:52;;;;;;;3.20;0.93;;;12.90;75.00;;;;;;4980469;28;20783;-75
2023/03/31 11:29:32;;;;;;;3.20;1.60;;;11.80;77.20;;;;;;4980479;28;20441;-74
2023/03/31 11:32:16;;;;;;;2.17;0.70;;;11.10;79.20;;;;;;4980375;28;20470;-72
2023/03/31 11:34:56;;;;;;;4.00;1.00;;;10.80;80.20;;;;;;4980476;28;20434;-73
2023/03/31 11:37:40;;;;;;;2.83;1.10;;;10.60;80.80;;;;;;4981288;28;20430;-73
2023/03/31 11:40:27;;;;;;;2.10;0.80;;;10.50;83.40;;;;;;4980373;28;20470;-73
2023/03/31 11:43:00;;;;;;;2.30;1.00;;;10.40;81.90;;;;;;4980471;28;20436;-73
2023/03/31 11:45:31;;;;;;;2.10;0.80;;;10.20;83.50;;;;;;4980299;28;20434;-73
2023/03/31 11:48:02;;;;;;;2.20;0.80;;;10.00;83.80;;;;;;4980191;28;20430;-73
2023/03/31 11:50:37;;;;;;;4.33;0.80;;;10.10;84.40;;;;;;4980119;28;20438;-73
2023/03/31 11:53:11;;;;;;;1.97;0.70;;;10.20;84.30;;;;;;4980126;28;20887;-73
2023/03/31 11:55:39;;;;;;;2.20;0.73;;;10.30;82.90;;;;;;4977792;28;20853;-73
2023/03/31 11:58:13;;;;;;;2.67;1.10;;;10.50;83.90;;;;;;4977318;28;20450;-73
2023/03/31 12:00:43;;;;;;;1.80;0.60;;;10.80;84.10;;;;;;4976870;28;20517;-73
2023/03/31 12:03:14;;;;;;;1.90;0.60;;;11.10;81.70;;;;;;4977131;28;20442;-73
2023/03/31 12:05:45;;;;;;;2.43;0.67;;;11.50;82.90;;;;;;4977154;28;20435;-74
2023/03/31 12:08:18;;;;;;;2.00;0.80;;;12.10;79.90;;;;;;4977145;28;20439;-73
2023/03/31 12:10:50;;;;;;;1.90;0.60;;;12.50;77.60;;;;;;4977360;28;20474;-74
2023/03/31 12:13:32;;;;;;;1.77;0.60;;;12.80;77.20;;;;;;4977464;28;20520;-74
2023/03/31 12:16:06;;;;;;;2.00;0.80;;;13.30;74.50;;;;;;4977322;28;20904;-74
2023/03/31 12:18:36;;;;;;;2.20;0.70;;;13.40;75.00;;;;;;4978032;28;20434;-74
2023/03/31 12:21:04;;;;;;;2.13;0.70;;;13.40;72.80;;;;;;4976996;28;20556;-73
2023/03/31 12:23:39;;;;;;;1.90;0.70;;;13.00;75.00;;;;;;4977264;28;20455;-75
2023/03/31 12:26:14;;;;;;;1.90;0.80;;;13.40;73.90;;;;;;4977331;28;20442;-74
2023/03/31 12:28:44;;;;;;;1.87;0.70;;;13.70;73.10;;;;;;4977941;28;20457;-74
2023/03/31 12:31:15;;;;;;;2.40;0.97;;;13.70;73.00;;;;;;4977387;28;20501;-74
2023/03/31 12:33:44;;;;;;;2.00;0.90;;;13.70;73.80;;;;;;4977450;28;20439;-75
2023/03/31 12:36:30;;;;;;;1.90;0.70;;;13.80;72.40;;;;;;4977299;28;20970;-75
2023/03/31 12:39:12;;;;;;;2.17;0.80;;;14.20;72.80;;;;;;4977431;28;20439;-75
2023/03/31 12:41:52;;;;;;;2.40;0.80;;;14.60;69.80;;;;;;4977859;28;20470;-75
2023/03/31 12:44:35;;;;;;;1.90;0.63;;;14.90;68.50;;;;;;4977568;28;20438;-75
2023/03/31 12:47:34;;;;;;;1.90;0.73;;;15.00;70.30;;;;;;4977259;28;20445;-75
2023/03/31 12:50:31;;;;;;;2.17;0.73;;;15.40;65.60;;;;;;4977263;28;20525;-74
2023/03/31 12:53:05;;;;;;;1.83;0.70;;;15.20;66.90;;;;;;4976824;28;20434;-75
2023/03/31 12:55:37;;;;;;;2.10;0.80;;;15.30;67.10;;;;;;4977282;28;20837;-75
2023/03/31 12:58:39;;;;;;;2.17;0.93;;;15.50;66.90;;;;;;4976774;28;20497;-75
2023/03/31 13:01:09;;;;;;;2.17;0.93;;;15.60;65.80;;;;;;4976358;28;20529;-75
2023/03/31 13:03:42;;;;;;;3.17;1.10;;;15.50;66.60;;;;;;4976847;28;20449;-74
2023/03/31 13:06:11;;;;;;;3.50;1.17;;;15.20;65.50;;;;;;4976201;28;20469;-74
2023/03/31 13:08:55;;;;;;;3.00;1.83;;;15.00;65.50;;;;;;4976677;28;20509;-74
2023/03/31 13:11:37;;;;;;;2.23;1.00;;;14.90;66.00;;;;;;4976596;28;20469;-75
2023/03/31 13:14:06;;;;;;;2.40;1.07;;;14.60;67.50;;;;;;4976352;28;20924;-74
2023/03/31 13:16:34;;;;;;;2.93;1.37;;;14.50;67.50;;;;;;4976489;28;20462;-74
2023/03/31 13:19:01;;;;;;;4.07;1.10;;;14.50;69.00;;;;;;4976063;28;20872;-74
2023/03/31 13:21:28;;;;;;;2.60;1.20;;;14.20;67.90;;;;;;4976178;28;20494;-74
2023/03/31 13:24:00;;;;;;;2.83;1.10;;;13.90;71.00;;;;;;4976140;28;20458;-74
2023/03/31 13:26:39;;;;;;;3.17;1.47;;;13.70;73.20;;;;;;4976324;28;20885;-75
2023/03/31 13:29:21;;;;;;;4.20;1.90;;;13.70;75.90;;;;;;4976335;28;20537;-77
2023/03/31 13:32:20;;;;;;;2.57;1.23;;;13.70;77.00;;;;;;4976198;28;20485;-75
2023/03/31 13:34:54;;;;;;;3.17;2.07;;;13.50;74.80;;;;;;4976289;28;20439;-75
2023/03/31 13:37:43;;;;;;;2.57;1.07;;;13.20;77.40;;;;;;4975807;28;20426;-75
2023/03/31 13:40:37;;;;;;;2.40;0.97;;;12.80;77.40;;;;;;4975671;28;20999;-74
2023/03/31 13:43:42;;;;;;;2.13;0.70;;;12.40;77.30;;;;;;4975747;28;20439;-74
2023/03/31 13:46:49;;;;;;;2.10;0.70;;;11.70;80.80;;;;;;4974646;28;20524;-74
2023/03/31 13:49:46;;;;;;;2.20;0.70;;;11.30;82.20;;;;;;4965047;28;20517;-74
2023/03/31 13:52:14;;;;;;;1.90;0.70;;;11.00;82.10;;;;;;4976492;28;20540;-75
2023/03/31 13:55:06;;;;;;;2.03;0.70;;;10.70;82.70;;;;;;4975970;28;20451;-74
2023/03/31 13:58:00;;;;;;;1.97;0.67;;;10.60;83.50;;;;;;4975482;28;20457;-75
2023/03/31 14:00:40;;;;;;;2.00;0.70;;;10.60;82.50;;;;;;4975754;28;20506;-74
2023/03/31 14:03:29;;;;;;;2.20;0.63;;;10.30;83.30;;;;;;4976234;28;20434;-74
2023/03/31 14:06:02;;;;;;;1.90;0.60;;;10.10;84.10;;;;;;4975727;28;20493;-74
2023/03/31 14:08:42;;;;;;;2.10;0.80;;;10.30;85.30;;;;;;4975622;28;20534;-75
2023/03/31 14:11:22;;;;;;;2.10;0.70;;;10.70;85.20;;;;;;4976178;28;20458;-74
2023/03/31 14:14:03;;;;;;;2.00;0.90;;;11.50;85.00;;;;;;4975487;28;20934;-75
2023/03/31 14:16:33;;;;;;;2.20;0.73;;;12.30;82.50;;;;;;4976536;28;20438;-77
2023/03/31 14:19:13;;;;;;;1.80;0.70;;;13.20;78.80;;;;;;4975165;28;20962;-75
2023/03/31 14:21:46;;;;;;;2.30;0.80;;;13.90;77.30;;;;;;4975581;28;20493;-76
2023/03/31 14:24:23;;;;;;;2.33;0.80;;;14.80;73.70;;;;;;4975422;28;20439;-76
2023/03/31 14:26:56;;;;;;;2.17;0.90;;;15.10;70.70;;;;;;4975386;28;20445;-76
2023/03/31 14:29:29;;;;;;;2.10;0.70;;;15.20;71.30;;;;;;4975353;28;20434;-75
2023/03/31 14:32:04;;;;;;;2.07;0.70;;;15.10;68.20;;;;;;4975459;28;20470;-76
2023/03/31 14:34:53;;;;;;;2.27;0.70;;;14.70;70.70;;;;;;4975083;28;20438;-75
2023/03/31 14:37:21;;;;;;;2.50;1.10;;;14.50;71.10;;;;;;4975219;28;20471;-75
2023/03/31 14:39:51;;;;;;;1.77;0.60;;;15.00;70.00;;;;;;4974575;28;20893;-75
2023/03/31 14:42:21;;;;;;;2.00;0.70;;;15.70;66.80;;;;;;4975261;28;20585;-75
2023/03/31 14:44:48;;;;;;;1.80;0.67;;;16.60;65.80;;;;;;4974960;28;20952;-76
2023/03/31 14:47:21;;;;;;;1.90;0.70;;;18.40;61.90;;;;;;4975637;28;20508;-77
2023/03/31 14:49:48;;;;;;;1.80;0.60;;;19.90;58.60;;;;;;4974814;28;20940;-75
2023/03/31 14:52:17;;;;;;;1.70;0.50;;;20.10;56.20;;;;;;4975099;28;20482;-76
2023/03/31 14:54:46;;;;;;;1.80;0.67;;;19.90;57.90;;;;;;4974848;28;20458;-76
2023/03/31 14:57:16;;;;;;;1.90;0.70;;;20.20;56.10;;;;;;4975003;28;21026;-76
2023/03/31 14:59:45;;;;;;;2.20;0.90;;;20.50;57.40;;;;;;4975092;28;20434;-75
2023/03/31 15:02:19;;;;;;;2.63;0.90;;;20.20;56.20;;;;;;4974825;28;20481;-75
2023/03/31 15:04:49;;;;;;;2.30;0.70;;;19.70;56.30;;;;;;4974908;28;20488;-75
2023/03/31 15:07:16;;;;;;;1.90;0.80;;;20.20;56.20;;;;;;4974459;28;20553;-74
2023/03/31 15:09:49;;;;;;;2.20;0.70;;;20.20;55.30;;;;;;4974516;28;21017;-75
2023/03/31 15:12:17;;;;;;;2.90;0.87;;;20.30;56.40;;;;;;4974339;28;20552;-75
2023/03/31 15:14:47;;;;;;;2.33;0.70;;;20.70;55.60;;;;;;4974432;28;20991;-75
2023/03/31 15:17:24;;;;;;;2.57;0.70;;;19.20;56.70;;;;;;4974288;28;20455;-75
2023/03/31 15:19:56;;;;;;;2.67;0.80;;;18.10;61.10;;;;;;4974621;28;20434;-74
2023/03/31 15:22:25;;;;;;;2.20;0.87;;;17.30;61.70;;;;;;4974143;28;20470;-75
2023/03/31 15:24:52;;;;;;;2.40;0.70;;;16.90;63.70;;;;;;4974215;28;20541;-76
2023/03/31 15:27:30;;;;;;;2.40;0.87;;;16.80;63.90;;;;;;4974346;28;20454;-75
2023/03/31 15:29:59;;;;;;;2.73;0.90;;;15.60;65.40;;;;;;4975775;28;20446;-76
2023/03/31 15:32:29;;;;;;;2.53;0.80;;;14.90;68.40;;;;;;4977777;28;20470;-75
2023/03/31 15:34:57;;;;;;;2.47;0.80;;;14.30;70.40;;;;;;4977843;28;20450;-76
2023/03/31 15:37:27;;;;;;;2.40;0.80;;;14.20;71.40;;;;;;4977883;28;20454;-76
2023/03/31 15:39:57;;;;;;;2.90;1.40;;;13.80;72.60;;;;;;4977572;28;20450;-75
2023/03/31 15:42:25;;;;;;;3.53;0.93;;;13.30;73.00;;;;;;4977682;28;20561;-75
2023/03/31 15:44:55;;;;;;;1.90;0.70;;;12.80;75.30;;;;;;4977596;28;20489;-75
2023/03/31 15:47:25;;;;;;;3.33;0.90;;;13.00;77.00;;;;;;4977615;28;20439;-75
2023/03/31 15:49:56;;;;;;;2.90;0.87;;;13.00;76.10;;;;;;4977542;28;20450;-75
2023/03/31 15:52:29;;;;;;;2.57;1.10;;;12.80;75.70;;;;;;4977501;28;20480;-75
2023/03/31 15:54:56;;;;;;;2.10;0.90;;;12.80;76.80;;;;;;4977522;28;20445;-75
2023/03/31 15:57:31;;;;;;;2.30;0.70;;;12.80;76.30;;;;;;4977422;28;20529;-75
2023/03/31 15:59:59;;;;;;;2.50;1.00;;;12.70;76.20;;;;;;4977218;28;20434;-74
2023/03/31 16:02:31;;;;;;;4.87;1.00;;;12.70;76.30;;;;;;4976910;28;20580;-74
2023/03/31 16:05:00;;;;;;;2.53;0.90;;;12.50;77.00;;;;;;4977868;28;20864;-75
2023/03/31 16:07:31;;;;;;;3.10;1.00;;;12.60;77.20;;;;;;4977333;28;20493;-76
2023/03/31 16:10:02;;;;;;;3.57;1.00;;;12.60;76.20;;;;;;4977054;28;20497;-74
2023/03/31 16:12:33;;;;;;;2.60;0.80;;;12.40;76.40;;;;;;4976959;28;20540;-74